sensor_id;sensor_type;location;lat;lon;timestamp;pressure;altitude;pressure_sealevel;temperature;humidity
77003;BME280;65939;50.060;14.288;2024-01-07T00:00:52;96618.22;;;0.70;99.16
77003;BME280;65939;50.060;14.288;2024-01-07T00:02:52;96628.28;;;0.73;99.19
77003;BME280;65939;50.060;14.288;2024-01-07T00:04:53;96626.66;;;0.72;98.40
77003;BME280;65939;50.060;14.288;2024-01-07T00:06:54;96632.94;;;0.68;98.01
77003;BME280;65939;50.060;14.288;2024-01-07T00:08:55;96626.84;;;0.69;98.62
77003;BME280;65939;50.060;14.288;2024-01-07T00:10:55;96630.13;;;0.71;98.12
77003;BME280;65939;50.060;14.288;2024-01-07T00:12:56;96638.28;;;0.65;98.31
77003;BME280;65939;50.060;14.288;2024-01-07T00:14:57;96633.59;;;0.59;97.76
77003;BME280;65939;50.060;14.288;2024-01-07T00:16:57;96633.94;;;0.54;98.09
77003;BME280;65939;50.060;14.288;2024-01-07T00:18:58;96635.91;;;0.51;97.82
77003;BME280;65939;50.060;14.288;2024-01-07T00:20:59;96626.78;;;0.46;97.75
77003;BME280;65939;50.060;14.288;2024-01-07T00:22:59;96624.63;;;0.40;97.81
77003;BME280;65939;50.060;14.288;2024-01-07T00:25:00;96633.56;;;0.35;97.53
77003;BME280;65939;50.060;14.288;2024-01-07T00:27:04;96630.41;;;0.31;97.51
77003;BME280;65939;50.060;14.288;2024-01-07T00:29:04;96629.81;;;0.28;97.69
77003;BME280;65939;50.060;14.288;2024-01-07T00:31:05;96632.72;;;0.23;97.49
77003;BME280;65939;50.060;14.288;2024-01-07T00:33:09;96634.28;;;0.13;97.71
77003;BME280;65939;50.060;14.288;2024-01-07T00:35:09;96644.97;;;0.07;98.09
77003;BME280;65939;50.060;14.288;2024-01-07T00:37:10;96641.78;;;0.03;97.96
77003;BME280;65939;50.060;14.288;2024-01-07T00:39:11;96643.53;;;0.03;98.12
77003;BME280;65939;50.060;14.288;2024-01-07T00:41:11;96646.09;;;0.03;98.13
77003;BME280;65939;50.060;14.288;2024-01-07T00:43:13;96651.66;;;-0.04;97.90
77003;BME280;65939;50.060;14.288;2024-01-07T00:45:13;96646.97;;;-0.10;97.61
77003;BME280;65939;50.060;14.288;2024-01-07T00:47:14;96652.78;;;-0.08;97.83
77003;BME280;65939;50.060;14.288;2024-01-07T00:49:15;96661.00;;;-0.03;98.03
77003;BME280;65939;50.060;14.288;2024-01-07T00:51:15;96661.81;;;-0.02;97.67
77003;BME280;65939;50.060;14.288;2024-01-07T00:53:16;96662.66;;;-0.02;97.60
77003;BME280;65939;50.060;14.288;2024-01-07T00:55:17;96659.34;;;-0.04;98.39
77003;BME280;65939;50.060;14.288;2024-01-07T00:57:17;96658.84;;;-0.09;97.85
77003;BME280;65939;50.060;14.288;2024-01-07T00:59:18;96665.34;;;-0.16;97.67
77003;BME280;65939;50.060;14.288;2024-01-07T01:01:19;96667.41;;;-0.21;97.89
77003;BME280;65939;50.060;14.288;2024-01-07T01:03:20;96666.69;;;-0.23;97.96
77003;BME280;65939;50.060;14.288;2024-01-07T01:05:20;96665.94;;;-0.25;97.89
77003;BME280;65939;50.060;14.288;2024-01-07T01:07:21;96671.31;;;-0.28;98.71
77003;BME280;65939;50.060;14.288;2024-01-07T01:09:22;96670.47;;;-0.29;98.75
77003;BME280;65939;50.060;14.288;2024-01-07T01:11:23;96676.66;;;-0.31;98.39
77003;BME280;65939;50.060;14.288;2024-01-07T01:13:23;96682.91;;;-0.35;98.82
77003;BME280;65939;50.060;14.288;2024-01-07T01:15:24;96683.72;;;-0.35;98.63
77003;BME280;65939;50.060;14.288;2024-01-07T01:17:25;96670.09;;;-0.35;98.27
77003;BME280;65939;50.060;14.288;2024-01-07T01:19:25;96685.47;;;-0.35;98.27
77003;BME280;65939;50.060;14.288;2024-01-07T01:21:26;96688.25;;;-0.38;97.87
77003;BME280;65939;50.060;14.288;2024-01-07T01:23:26;96690.81;;;-0.38;98.24
77003;BME280;65939;50.060;14.288;2024-01-07T01:25:27;96686.56;;;-0.39;97.66
77003;BME280;65939;50.060;14.288;2024-01-07T01:27:29;96690.38;;;-0.45;97.86
77003;BME280;65939;50.060;14.288;2024-01-07T01:29:30;96687.09;;;-0.47;98.02
77003;BME280;65939;50.060;14.288;2024-01-07T01:31:31;96682.16;;;-0.50;98.16
77003;BME280;65939;50.060;14.288;2024-01-07T01:33:32;96693.28;;;-0.50;98.53
77003;BME280;65939;50.060;14.288;2024-01-07T01:35:32;96688.84;;;-0.47;97.96
77003;BME280;65939;50.060;14.288;2024-01-07T01:37:33;96685.88;;;-0.41;98.06
77003;BME280;65939;50.060;14.288;2024-01-07T01:39:34;96687.63;;;-0.42;97.50
77003;BME280;65939;50.060;14.288;2024-01-07T01:41:34;96691.31;;;-0.46;97.12
77003;BME280;65939;50.060;14.288;2024-01-07T01:43:35;96689.47;;;-0.44;96.87
77003;BME280;65939;50.060;14.288;2024-01-07T01:45:35;96691.94;;;-0.42;97.19
77003;BME280;65939;50.060;14.288;2024-01-07T01:47:36;96709.16;;;-0.44;96.42
77003;BME280;65939;50.060;14.288;2024-01-07T01:49:37;96701.97;;;-0.52;95.48
77003;BME280;65939;50.060;14.288;2024-01-07T01:51:38;96704.75;;;-0.55;95.30
77003;BME280;65939;50.060;14.288;2024-01-07T01:53:40;96704.00;;;-0.57;95.47
77003;BME280;65939;50.060;14.288;2024-01-07T01:55:42;96704.13;;;-0.59;95.41
77003;BME280;65939;50.060;14.288;2024-01-07T01:57:46;96696.44;;;-0.59;95.25
77003;BME280;65939;50.060;14.288;2024-01-07T01:59:48;96696.63;;;-0.62;95.04
77003;BME280;65939;50.060;14.288;2024-01-07T02:01:49;96699.31;;;-0.63;95.21
77003;BME280;65939;50.060;14.288;2024-01-07T02:03:50;96692.81;;;-0.69;94.90
77003;BME280;65939;50.060;14.288;2024-01-07T02:05:52;96700.84;;;-0.74;94.62
77003;BME280;65939;50.060;14.288;2024-01-07T02:07:53;96695.16;;;-0.79;93.91
77003;BME280;65939;50.060;14.288;2024-01-07T02:09:55;96690.34;;;-0.83;94.21
77003;BME280;65939;50.060;14.288;2024-01-07T02:12:05;96705.09;;;-0.87;93.86
77003;BME280;65939;50.060;14.288;2024-01-07T02:14:06;96702.47;;;-0.85;93.90
77003;BME280;65939;50.060;14.288;2024-01-07T02:16:07;96714.22;;;-0.83;93.48
77003;BME280;65939;50.060;14.288;2024-01-07T02:18:08;96705.91;;;-0.86;93.40
77003;BME280;65939;50.060;14.288;2024-01-07T02:20:09;96703.56;;;-0.89;93.70
77003;BME280;65939;50.060;14.288;2024-01-07T02:22:10;96707.03;;;-0.90;93.37
77003;BME280;65939;50.060;14.288;2024-01-07T02:24:15;96710.41;;;-0.90;93.88
77003;BME280;65939;50.060;14.288;2024-01-07T02:26:16;96706.84;;;-0.87;93.65
77003;BME280;65939;50.060;14.288;2024-01-07T02:28:17;96706.13;;;-0.89;93.34
77003;BME280;65939;50.060;14.288;2024-01-07T02:30:17;96704.47;;;-0.90;93.91
77003;BME280;65939;50.060;14.288;2024-01-07T02:32:18;96713.72;;;-0.88;93.39
77003;BME280;65939;50.060;14.288;2024-01-07T02:34:19;96702.47;;;-0.85;93.85
77003;BME280;65939;50.060;14.288;2024-01-07T02:36:19;96714.34;;;-0.84;93.37
77003;BME280;65939;50.060;14.288;2024-01-07T02:38:20;96708.41;;;-0.85;93.69
77003;BME280;65939;50.060;14.288;2024-01-07T02:40:21;96714.53;;;-0.87;93.36
77003;BME280;65939;50.060;14.288;2024-01-07T02:42:21;96714.66;;;-0.89;93.86
77003;BME280;65939;50.060;14.288;2024-01-07T02:44:22;96717.00;;;-0.86;92.86
77003;BME280;65939;50.060;14.288;2024-01-07T02:46:24;96716.16;;;-0.86;92.88
77003;BME280;65939;50.060;14.288;2024-01-07T02:48:24;96714.53;;;-0.87;92.67
77003;BME280;65939;50.060;14.288;2024-01-07T02:50:25;96718.84;;;-0.88;92.54
77003;BME280;65939;50.060;14.288;2024-01-07T02:52:26;96713.91;;;-0.91;92.20
77003;BME280;65939;50.060;14.288;2024-01-07T02:54:26;96714.84;;;-0.92;93.19
77003;BME280;65939;50.060;14.288;2024-01-07T02:56:27;96711.25;;;-0.89;92.36
77003;BME280;65939;50.060;14.288;2024-01-07T02:58:27;96712.28;;;-0.92;92.51
77003;BME280;65939;50.060;14.288;2024-01-07T03:00:28;96712.47;;;-0.95;92.44
77003;BME280;65939;50.060;14.288;2024-01-07T03:02:30;96725.16;;;-0.93;92.43
77003;BME280;65939;50.060;14.288;2024-01-07T03:04:30;96716.78;;;-0.95;92.00
77003;BME280;65939;50.060;14.288;2024-01-07T03:06:31;96710.09;;;-0.98;91.92
77003;BME280;65939;50.060;14.288;2024-01-07T03:08:32;96706.09;;;-1.02;92.23
77003;BME280;65939;50.060;14.288;2024-01-07T03:10:33;96708.03;;;-1.06;92.10
77003;BME280;65939;50.060;14.288;2024-01-07T03:12:34;96709.16;;;-1.10;91.81
77003;BME280;65939;50.060;14.288;2024-01-07T03:14:34;96712.81;;;-1.14;92.27
77003;BME280;65939;50.060;14.288;2024-01-07T03:16:35;96715.59;;;-1.17;92.02
77003;BME280;65939;50.060;14.288;2024-01-07T03:18:36;96716.50;;;-1.18;92.63
77003;BME280;65939;50.060;14.288;2024-01-07T03:20:36;96713.22;;;-1.20;92.37
77003;BME280;65939;50.060;14.288;2024-01-07T03:22:37;96719.34;;;-1.23;92.25
77003;BME280;65939;50.060;14.288;2024-01-07T03:24:38;96713.72;;;-1.28;92.71
77003;BME280;65939;50.060;14.288;2024-01-07T03:26:38;96711.97;;;-1.27;92.93
77003;BME280;65939;50.060;14.288;2024-01-07T03:28:39;96712.78;;;-1.27;92.75
77003;BME280;65939;50.060;14.288;2024-01-07T03:30:40;96709.50;;;-1.29;92.38
77003;BME280;65939;50.060;14.288;2024-01-07T03:32:40;96705.41;;;-1.31;93.06
77003;BME280;65939;50.060;14.288;2024-01-07T03:34:41;96726.88;;;-1.34;93.22
77003;BME280;65939;50.060;14.288;2024-01-07T03:36:42;96723.59;;;-1.36;93.26
77003;BME280;65939;50.060;14.288;2024-01-07T03:38:43;96726.16;;;-1.36;93.08
77003;BME280;65939;50.060;14.288;2024-01-07T03:40:43;96720.31;;;-1.38;92.74
77003;BME280;65939;50.060;14.288;2024-01-07T03:42:44;96722.44;;;-1.45;92.56
77003;BME280;65939;50.060;14.288;2024-01-07T03:44:44;96720.81;;;-1.46;92.35
77003;BME280;65939;50.060;14.288;2024-01-07T03:46:45;96729.31;;;-1.45;92.43
77003;BME280;65939;50.060;14.288;2024-01-07T03:48:46;96737.69;;;-1.43;92.78
77003;BME280;65939;50.060;14.288;2024-01-07T03:50:47;96735.94;;;-1.42;92.27
77003;BME280;65939;50.060;14.288;2024-01-07T03:52:47;96728.50;;;-1.46;92.02
77003;BME280;65939;50.060;14.288;2024-01-07T03:54:48;96732.69;;;-1.45;92.00
77003;BME280;65939;50.060;14.288;2024-01-07T03:56:49;96731.94;;;-1.47;92.32
77003;BME280;65939;50.060;14.288;2024-01-07T03:58:49;96737.25;;;-1.50;92.08
77003;BME280;65939;50.060;14.288;2024-01-07T04:00:51;96739.19;;;-1.53;92.39
77003;BME280;65939;50.060;14.288;2024-01-07T04:02:52;96738.34;;;-1.54;92.21
77003;BME280;65939;50.060;14.288;2024-01-07T04:04:52;96746.03;;;-1.54;91.88
77003;BME280;65939;50.060;14.288;2024-01-07T04:06:53;96744.22;;;-1.52;91.58
77003;BME280;65939;50.060;14.288;2024-01-07T04:08:54;96745.84;;;-1.51;92.14
77003;BME280;65939;50.060;14.288;2024-01-07T04:10:54;96741.66;;;-1.52;92.22
77003;BME280;65939;50.060;14.288;2024-01-07T04:12:55;96741.03;;;-1.55;92.24
77003;BME280;65939;50.060;14.288;2024-01-07T04:14:56;96747.16;;;-1.58;92.35
77003;BME280;65939;50.060;14.288;2024-01-07T04:16:56;96755.13;;;-1.62;91.82
77003;BME280;65939;50.060;14.288;2024-01-07T04:18:57;96750.81;;;-1.62;91.78
77003;BME280;65939;50.060;14.288;2024-01-07T04:20:58;96749.25;;;-1.64;92.32
77003;BME280;65939;50.060;14.288;2024-01-07T04:22:58;96750.53;;;-1.72;92.47
77003;BME280;65939;50.060;14.288;2024-01-07T04:24:59;96749.66;;;-1.71;92.48
77003;BME280;65939;50.060;14.288;2024-01-07T04:27:00;96754.38;;;-1.79;92.79
77003;BME280;65939;50.060;14.288;2024-01-07T04:29:00;96750.03;;;-1.77;92.85
77003;BME280;65939;50.060;14.288;2024-01-07T04:31:02;96743.91;;;-1.74;92.89
77003;BME280;65939;50.060;14.288;2024-01-07T04:33:03;96771.03;;;-1.72;92.36
77003;BME280;65939;50.060;14.288;2024-01-07T04:35:04;96762.44;;;-1.71;92.34
77003;BME280;65939;50.060;14.288;2024-01-07T04:37:06;96762.53;;;-1.72;92.27
77003;BME280;65939;50.060;14.288;2024-01-07T04:39:07;96759.44;;;-1.77;92.33
77003;BME280;65939;50.060;14.288;2024-01-07T04:41:07;96763.63;;;-1.76;92.66
77003;BME280;65939;50.060;14.288;2024-01-07T04:43:08;96769.66;;;-1.77;92.36
77003;BME280;65939;50.060;14.288;2024-01-07T04:45:09;96769.75;;;-1.79;92.32
77003;BME280;65939;50.060;14.288;2024-01-07T04:47:28;96774.16;;;-1.81;92.67
77003;BME280;65939;50.060;14.288;2024-01-07T04:49:29;96775.69;;;-1.78;92.80
77003;BME280;65939;50.060;14.288;2024-01-07T04:51:30;96767.19;;;-1.79;92.12
77003;BME280;65939;50.060;14.288;2024-01-07T04:53:30;96769.84;;;-1.80;92.42
77003;BME280;65939;50.060;14.288;2024-01-07T04:55:31;96764.72;;;-1.80;92.54
77003;BME280;65939;50.060;14.288;2024-01-07T04:57:31;96781.91;;;-1.82;92.73
77003;BME280;65939;50.060;14.288;2024-01-07T04:59:32;96793.97;;;-1.84;92.64
77003;BME280;65939;50.060;14.288;2024-01-07T05:01:33;96798.34;;;-1.86;92.34
77003;BME280;65939;50.060;14.288;2024-01-07T05:03:34;96792.25;;;-1.84;92.67
77003;BME280;65939;50.060;14.288;2024-01-07T05:05:35;96791.25;;;-1.81;92.63
77003;BME280;65939;50.060;14.288;2024-01-07T05:07:37;96786.00;;;-1.80;93.00
77003;BME280;65939;50.060;14.288;2024-01-07T05:09:39;96786.66;;;-1.76;92.58
77003;BME280;65939;50.060;14.288;2024-01-07T05:11:40;96791.03;;;-1.78;92.50
77003;BME280;65939;50.060;14.288;2024-01-07T05:13:40;96791.31;;;-1.83;92.30
77003;BME280;65939;50.060;14.288;2024-01-07T05:15:41;96790.66;;;-1.86;92.31
77003;BME280;65939;50.060;14.288;2024-01-07T05:17:42;96800.84;;;-1.85;91.89
77003;BME280;65939;50.060;14.288;2024-01-07T05:19:42;96803.81;;;-1.93;92.15
77003;BME280;65939;50.060;14.288;2024-01-07T05:21:43;96803.75;;;-1.91;92.48
77003;BME280;65939;50.060;14.288;2024-01-07T05:23:44;96807.88;;;-1.88;92.29
77003;BME280;65939;50.060;14.288;2024-01-07T05:25:46;96813.88;;;-1.89;92.06
77003;BME280;65939;50.060;14.288;2024-01-07T05:27:46;96812.25;;;-1.90;92.89
77003;BME280;65939;50.060;14.288;2024-01-07T05:29:47;96811.31;;;-1.89;92.37
77003;BME280;65939;50.060;14.288;2024-01-07T05:31:48;96810.16;;;-1.84;92.80
77003;BME280;65939;50.060;14.288;2024-01-07T05:33:48;96800.72;;;-1.83;92.19
77003;BME280;65939;50.060;14.288;2024-01-07T05:35:49;96810.22;;;-1.85;92.44
77003;BME280;65939;50.060;14.288;2024-01-07T05:37:49;96817.47;;;-1.92;92.25
77003;BME280;65939;50.060;14.288;2024-01-07T05:39:50;96811.69;;;-1.96;92.71
77003;BME280;65939;50.060;14.288;2024-01-07T05:41:51;96814.25;;;-1.96;92.91
77003;BME280;65939;50.060;14.288;2024-01-07T05:43:51;96823.75;;;-1.98;92.75
77003;BME280;65939;50.060;14.288;2024-01-07T05:45:52;96847.84;;;-2.02;92.96
77003;BME280;65939;50.060;14.288;2024-01-07T05:47:53;96833.44;;;-2.03;92.74
77003;BME280;65939;50.060;14.288;2024-01-07T05:49:53;96843.75;;;-2.04;93.00
77003;BME280;65939;50.060;14.288;2024-01-07T05:51:54;96831.13;;;-2.07;92.88
77003;BME280;65939;50.060;14.288;2024-01-07T05:53:54;96825.38;;;-2.11;93.51
77003;BME280;65939;50.060;14.288;2024-01-07T05:55:55;96834.31;;;-2.18;93.56
77003;BME280;65939;50.060;14.288;2024-01-07T05:57:56;96837.94;;;-2.22;93.61
77003;BME280;65939;50.060;14.288;2024-01-07T05:59:57;96835.66;;;-2.27;93.45
77003;BME280;65939;50.060;14.288;2024-01-07T06:01:58;96846.44;;;-2.22;93.46
77003;BME280;65939;50.060;14.288;2024-01-07T06:03:59;96847.09;;;-2.18;93.58
77003;BME280;65939;50.060;14.288;2024-01-07T06:06:00;96848.00;;;-2.19;93.85
77003;BME280;65939;50.060;14.288;2024-01-07T06:08:01;96856.84;;;-2.25;93.67
77003;BME280;65939;50.060;14.288;2024-01-07T06:10:03;96853.63;;;-2.28;93.66
77003;BME280;65939;50.060;14.288;2024-01-07T06:12:04;96854.44;;;-2.28;93.51
77003;BME280;65939;50.060;14.288;2024-01-07T06:14:05;96861.94;;;-2.25;93.38
77003;BME280;65939;50.060;14.288;2024-01-07T06:16:05;96854.28;;;-2.25;93.77
77003;BME280;65939;50.060;14.288;2024-01-07T06:18:06;96867.88;;;-2.24;93.62
77003;BME280;65939;50.060;14.288;2024-01-07T06:20:07;96863.69;;;-2.25;93.53
77003;BME280;65939;50.060;14.288;2024-01-07T06:22:08;96869.72;;;-2.26;93.28
77003;BME280;65939;50.060;14.288;2024-01-07T06:24:09;96863.03;;;-2.29;93.03
77003;BME280;65939;50.060;14.288;2024-01-07T06:26:10;96866.34;;;-2.27;93.24
77003;BME280;65939;50.060;14.288;2024-01-07T06:28:11;96870.44;;;-2.24;92.93
77003;BME280;65939;50.060;14.288;2024-01-07T06:30:12;96882.41;;;-2.25;92.62
77003;BME280;65939;50.060;14.288;2024-01-07T06:32:14;96873.84;;;-2.24;92.33
77003;BME280;65939;50.060;14.288;2024-01-07T06:34:14;96878.31;;;-2.27;92.56
77003;BME280;65939;50.060;14.288;2024-01-07T06:36:15;96889.19;;;-2.24;92.37
77003;BME280;65939;50.060;14.288;2024-01-07T06:38:16;96890.00;;;-2.23;92.81
77003;BME280;65939;50.060;14.288;2024-01-07T06:40:16;96895.13;;;-2.23;92.29
77003;BME280;65939;50.060;14.288;2024-01-07T06:42:17;96901.97;;;-2.24;92.26
77003;BME280;65939;50.060;14.288;2024-01-07T06:44:18;96901.97;;;-2.24;92.12
77003;BME280;65939;50.060;14.288;2024-01-07T06:46:18;96901.22;;;-2.26;91.97
77003;BME280;65939;50.060;14.288;2024-01-07T06:48:19;96902.13;;;-2.27;91.78
77003;BME280;65939;50.060;14.288;2024-01-07T06:50:20;96902.84;;;-2.25;92.00
77003;BME280;65939;50.060;14.288;2024-01-07T06:52:20;96912.19;;;-2.24;91.22
77003;BME280;65939;50.060;14.288;2024-01-07T06:54:21;96914.00;;;-2.26;91.63
77003;BME280;65939;50.060;14.288;2024-01-07T06:56:22;96909.88;;;-2.28;91.30
77003;BME280;65939;50.060;14.288;2024-01-07T06:58:24;96921.19;;;-2.32;91.44
77003;BME280;65939;50.060;14.288;2024-01-07T07:00:25;96915.41;;;-2.36;91.13
77003;BME280;65939;50.060;14.288;2024-01-07T07:02:26;96925.91;;;-2.41;91.11
77003;BME280;65939;50.060;14.288;2024-01-07T07:04:26;96927.72;;;-2.43;91.26
77003;BME280;65939;50.060;14.288;2024-01-07T07:06:27;96940.50;;;-2.43;90.61
77003;BME280;65939;50.060;14.288;2024-01-07T07:08:27;96931.34;;;-2.47;90.17
77003;BME280;65939;50.060;14.288;2024-01-07T07:10:28;96928.78;;;-2.47;90.14
77003;BME280;65939;50.060;14.288;2024-01-07T07:12:29;96935.53;;;-2.46;90.47
77003;BME280;65939;50.060;14.288;2024-01-07T07:14:30;96944.13;;;-2.47;90.19
77003;BME280;65939;50.060;14.288;2024-01-07T07:16:30;96945.97;;;-2.49;90.23
77003;BME280;65939;50.060;14.288;2024-01-07T07:18:31;96944.22;;;-2.48;89.96
77003;BME280;65939;50.060;14.288;2024-01-07T07:20:32;96951.78;;;-2.47;90.08
77003;BME280;65939;50.060;14.288;2024-01-07T07:22:32;96956.84;;;-2.45;89.97
77003;BME280;65939;50.060;14.288;2024-01-07T07:24:33;96958.53;;;-2.46;89.36
77003;BME280;65939;50.060;14.288;2024-01-07T07:26:34;96958.47;;;-2.44;89.06
77003;BME280;65939;50.060;14.288;2024-01-07T07:28:36;96980.50;;;-2.42;89.06
77003;BME280;65939;50.060;14.288;2024-01-07T07:30:37;96972.84;;;-2.42;88.57
77003;BME280;65939;50.060;14.288;2024-01-07T07:32:40;96967.72;;;-2.42;89.02
77003;BME280;65939;50.060;14.288;2024-01-07T07:34:42;96984.69;;;-2.41;88.13
77003;BME280;65939;50.060;14.288;2024-01-07T07:36:42;96981.16;;;-2.38;88.37
77003;BME280;65939;50.060;14.288;2024-01-07T07:38:45;96971.59;;;-2.34;88.22
77003;BME280;65939;50.060;14.288;2024-01-07T07:40:45;96979.72;;;-2.28;88.33
77003;BME280;65939;50.060;14.288;2024-01-07T07:42:52;96985.03;;;-2.31;87.83
77003;BME280;65939;50.060;14.288;2024-01-07T07:44:53;96988.63;;;-2.35;87.51
77003;BME280;65939;50.060;14.288;2024-01-07T07:46:54;96988.91;;;-2.39;87.36
77003;BME280;65939;50.060;14.288;2024-01-07T07:48:54;96982.31;;;-2.44;87.48
77003;BME280;65939;50.060;14.288;2024-01-07T07:50:55;96980.72;;;-2.46;87.72
77003;BME280;65939;50.060;14.288;2024-01-07T07:52:56;96980.66;;;-2.45;87.74
77003;BME280;65939;50.060;14.288;2024-01-07T07:54:56;96984.97;;;-2.45;87.24
77003;BME280;65939;50.060;14.288;2024-01-07T07:56:57;96984.03;;;-2.44;87.52
77003;BME280;65939;50.060;14.288;2024-01-07T07:58:58;96991.53;;;-2.41;87.70
77003;BME280;65939;50.060;14.288;2024-01-07T08:00:59;96996.81;;;-2.44;87.56
77003;BME280;65939;50.060;14.288;2024-01-07T08:02:59;96994.44;;;-2.47;87.68
77003;BME280;65939;50.060;14.288;2024-01-07T08:05:00;97010.69;;;-2.48;87.32
77003;BME280;65939;50.060;14.288;2024-01-07T08:07:04;96993.75;;;-2.51;87.51
77003;BME280;65939;50.060;14.288;2024-01-07T08:09:05;96997.41;;;-2.55;87.68
77003;BME280;65939;50.060;14.288;2024-01-07T08:11:06;97002.34;;;-2.52;87.81
77003;BME280;65939;50.060;14.288;2024-01-07T08:13:09;97004.75;;;-2.49;87.44
77003;BME280;65939;50.060;14.288;2024-01-07T08:15:10;96993.59;;;-2.48;87.49
77003;BME280;65939;50.060;14.288;2024-01-07T08:17:10;97006.28;;;-2.46;87.71
77003;BME280;65939;50.060;14.288;2024-01-07T08:19:11;97019.16;;;-2.48;87.81
77003;BME280;65939;50.060;14.288;2024-01-07T08:21:11;97013.13;;;-2.47;87.99
77003;BME280;65939;50.060;14.288;2024-01-07T08:23:12;97020.75;;;-2.45;87.60
77003;BME280;65939;50.060;14.288;2024-01-07T08:25:13;97025.91;;;-2.47;87.78
77003;BME280;65939;50.060;14.288;2024-01-07T08:27:13;97026.66;;;-2.45;88.46
77003;BME280;65939;50.060;14.288;2024-01-07T08:29:14;97033.53;;;-2.45;87.91
77003;BME280;65939;50.060;14.288;2024-01-07T08:31:15;97028.16;;;-2.41;88.32
77003;BME280;65939;50.060;14.288;2024-01-07T08:33:15;97034.00;;;-2.38;88.17
77003;BME280;65939;50.060;14.288;2024-01-07T08:35:16;97049.25;;;-2.37;87.74
77003;BME280;65939;50.060;14.288;2024-01-07T08:37:17;97045.78;;;-2.36;87.61
77003;BME280;65939;50.060;14.288;2024-01-07T08:39:17;97047.38;;;-2.33;87.28
77003;BME280;65939;50.060;14.288;2024-01-07T08:41:18;97049.16;;;-2.35;87.54
77003;BME280;65939;50.060;14.288;2024-01-07T08:43:19;97047.53;;;-2.36;87.87
77003;BME280;65939;50.060;14.288;2024-01-07T08:45:19;97054.38;;;-2.37;88.09
77003;BME280;65939;50.060;14.288;2024-01-07T08:47:20;97054.28;;;-2.35;87.85
77003;BME280;65939;50.060;14.288;2024-01-07T08:49:21;97048.28;;;-2.34;87.86
77003;BME280;65939;50.060;14.288;2024-01-07T08:51:21;97052.47;;;-2.33;87.73
77003;BME280;65939;50.060;14.288;2024-01-07T08:53:22;97056.78;;;-2.34;87.54
77003;BME280;65939;50.060;14.288;2024-01-07T08:55:22;97063.78;;;-2.37;87.56
77003;BME280;65939;50.060;14.288;2024-01-07T08:57:23;97059.75;;;-2.42;87.48
77003;BME280;65939;50.060;14.288;2024-01-07T08:59:24;97057.41;;;-2.46;87.95
77003;BME280;65939;50.060;14.288;2024-01-07T09:01:25;97063.53;;;-2.49;87.57
77003;BME280;65939;50.060;14.288;2024-01-07T09:03:25;97071.19;;;-2.49;87.54
77003;BME280;65939;50.060;14.288;2024-01-07T09:05:26;97072.75;;;-2.46;87.62
77003;BME280;65939;50.060;14.288;2024-01-07T09:07:27;97065.81;;;-2.44;87.33
77003;BME280;65939;50.060;14.288;2024-01-07T09:09:27;97074.88;;;-2.38;87.50
77003;BME280;65939;50.060;14.288;2024-01-07T09:11:28;97087.66;;;-2.38;86.99
77003;BME280;65939;50.060;14.288;2024-01-07T09:13:29;97085.97;;;-2.38;86.86
77003;BME280;65939;50.060;14.288;2024-01-07T09:15:29;97069.88;;;-2.40;86.52
77003;BME280;65939;50.060;14.288;2024-01-07T09:17:31;97085.13;;;-2.38;nan
77003;BME280;65939;50.060;14.288;2024-01-07T09:19:32;97081.72;;;-2.39;86.30
77003;BME280;65939;50.060;14.288;2024-01-07T09:21:32;97085.97;;;-2.38;86.31
77003;BME280;65939;50.060;14.288;2024-01-07T09:23:34;97091.91;;;-2.37;86.60
77003;BME280;65939;50.060;14.288;2024-01-07T09:25:36;97071.34;;;-2.36;86.16
77003;BME280;65939;50.060;14.288;2024-01-07T09:27:37;97083.97;;;-2.33;86.49
77003;BME280;65939;50.060;14.288;2024-01-07T09:29:37;97086.28;;;-2.28;86.44
77003;BME280;65939;50.060;14.288;2024-01-07T09:31:38;97089.50;;;-2.25;86.00
77003;BME280;65939;50.060;14.288;2024-01-07T09:33:39;97092.06;;;-2.25;85.69
77003;BME280;65939;50.060;14.288;2024-01-07T09:35:40;97108.31;;;-2.26;85.70
77003;BME280;65939;50.060;14.288;2024-01-07T09:37:40;97106.41;;;-2.38;85.15
77003;BME280;65939;50.060;14.288;2024-01-07T09:39:41;97102.44;;;-2.44;84.85
77003;BME280;65939;50.060;14.288;2024-01-07T09:41:42;97095.84;;;-2.48;85.46
77003;BME280;65939;50.060;14.288;2024-01-07T09:43:42;97089.16;;;-2.50;85.18
77003;BME280;65939;50.060;14.288;2024-01-07T09:45:46;97095.75;;;-2.46;85.29
77003;BME280;65939;50.060;14.288;2024-01-07T09:47:48;97097.16;;;-2.41;84.84
77003;BME280;65939;50.060;14.288;2024-01-07T09:49:49;97086.19;;;-2.43;85.00
77003;BME280;65939;50.060;14.288;2024-01-07T09:51:54;97099.31;;;-2.49;84.71
77003;BME280;65939;50.060;14.288;2024-01-07T09:54:02;97092.47;;;-2.48;85.02
77003;BME280;65939;50.060;14.288;2024-01-07T09:56:26;97095.91;;;-2.49;84.59
77003;BME280;65939;50.060;14.288;2024-01-07T09:58:31;97107.69;;;-2.47;85.03
77003;BME280;65939;50.060;14.288;2024-01-07T10:00:32;97085.38;;;-2.43;84.85
77003;BME280;65939;50.060;14.288;2024-01-07T10:02:33;97096.34;;;-2.41;84.38
77003;BME280;65939;50.060;14.288;2024-01-07T10:04:34;97083.47;;;-2.39;84.26
77003;BME280;65939;50.060;14.288;2024-01-07T10:06:35;97085.03;;;-2.37;84.72
77003;BME280;65939;50.060;14.288;2024-01-07T10:08:35;97115.06;;;-2.41;84.27
77003;BME280;65939;50.060;14.288;2024-01-07T10:10:36;97080.41;;;-2.46;83.65
77003;BME280;65939;50.060;14.288;2024-01-07T10:12:37;97102.59;;;-2.47;83.96
77003;BME280;65939;50.060;14.288;2024-01-07T10:14:38;97085.63;;;-2.48;83.39
77003;BME280;65939;50.060;14.288;2024-01-07T10:16:40;97089.91;;;-2.48;83.90
77003;BME280;65939;50.060;14.288;2024-01-07T10:18:41;97087.09;;;-2.44;83.58
77003;BME280;65939;50.060;14.288;2024-01-07T10:20:42;97090.00;;;-2.34;83.76
77003;BME280;65939;50.060;14.288;2024-01-07T10:22:46;97086.63;;;-2.34;83.15
77003;BME280;65939;50.060;14.288;2024-01-07T10:24:51;97085.88;;;-2.36;82.70
77003;BME280;65939;50.060;14.288;2024-01-07T10:26:52;97100.38;;;-2.37;82.17
77003;BME280;65939;50.060;14.288;2024-01-07T10:28:53;97097.56;;;-2.32;82.38
77003;BME280;65939;50.060;14.288;2024-01-07T10:30:54;97096.34;;;-2.25;82.57
77003;BME280;65939;50.060;14.288;2024-01-07T10:32:58;97103.59;;;-2.18;82.65